Check out our new PWSWeather beta!
PWSweather.com
Personal Weather Stations
Station Observations
KMNGREYC2
Grey Cloud Island, Grey Cloud Island, MN 55071

Grey Cloud IslandGrey Cloud Island, MN 55071

Lat: 44.799333, Lon: -92.987851

Elevation: 700

Station Type: Davis VP2

www.jagielski.com/weather/conditions.htm

High Low Average
Temperature 27.2°F-2.7°C 18.3°F-7.6°C 22.5°F-5.3°C
Dew Point 22.9°F-5.1°C 14.0°F-10.0°C 19.7°F-6.8°C
Winds 7.0 mph 11.3 kmh Calm Calm 3.0 mph W4.8 kmh W
Wind Gusts 12.0 mph19.3 kmh 4.0 mph6.4 kmh 8.0 mph12.9 kmh
Humidity 93% 78% 89%
Pressure 29.79 in1008.8 mb 29.56 in1001.0 mb -
Precipitation 0.00 in0.0 mm - -
Hour Temp Dew Point Humidity Winds Wind Gusts Pressure Precip Precip Rate Daily Precip Total
12:00 AM 21.3°F-5.9°C 19.6°F-6.9°C 93% 5.0 mph WNW8.0 kmh WNW 11.0 mph17.7 kmh 29.56 in1001.0 mb 0.00 in0.0 mm 0.00 in0.0 mm 0.00 in0.0 mm
12:15 AM 21.3°F-5.9°C 19.6°F-6.9°C 93% 3.0 mph WNW4.8 kmh WNW 9.0 mph14.5 kmh 29.57 in1001.4 mb 0.00 in0.0 mm 0.00 in0.0 mm 0.00 in0.0 mm
12:30 AM 21.3°F-5.9°C 19.6°F-6.9°C 93% 4.0 mph WNW6.4 kmh WNW 9.0 mph14.5 kmh 29.57 in1001.4 mb 0.00 in0.0 mm 0.00 in0.0 mm 0.00 in0.0 mm
12:45 AM 21.4°F-5.9°C 19.7°F-6.8°C 93% 3.0 mph WNW4.8 kmh WNW 7.0 mph11.3 kmh 29.57 in1001.4 mb 0.00 in0.0 mm 0.00 in0.0 mm 0.00 in0.0 mm
01:00 AM 21.5°F-5.8°C 19.8°F-6.8°C 93% 7.0 mph WNW11.3 kmh WNW 10.0 mph16.1 kmh 29.57 in1001.4 mb 0.00 in0.0 mm 0.00 in0.0 mm 0.00 in0.0 mm
01:15 AM 21.5°F-5.8°C 19.8°F-6.8°C 93% 2.0 mph WNW3.2 kmh WNW 9.0 mph14.5 kmh 29.58 in1001.7 mb 0.00 in0.0 mm 0.00 in0.0 mm 0.00 in0.0 mm
01:30 AM 21.6°F-5.8°C 19.9°F-6.7°C 93% 2.0 mph WNW3.2 kmh WNW 9.0 mph14.5 kmh 29.59 in1002.0 mb 0.00 in0.0 mm 0.00 in0.0 mm 0.00 in0.0 mm
01:45 AM 21.8°F-5.7°C 20.1°F-6.6°C 93% 5.0 mph WNW8.0 kmh WNW 7.0 mph11.3 kmh 29.59 in1002.0 mb 0.00 in0.0 mm 0.00 in0.0 mm 0.00 in0.0 mm
02:00 AM 21.9°F-5.6°C 20.2°F-6.6°C 93% 2.0 mph WNW3.2 kmh WNW 7.0 mph11.3 kmh 29.59 in1002.0 mb 0.00 in0.0 mm 0.00 in0.0 mm 0.00 in0.0 mm
02:15 AM 22.0°F-5.6°C 20.3°F-6.5°C 93% Calm Calm 10.0 mph16.1 kmh 29.59 in1002.0 mb 0.00 in0.0 mm 0.00 in0.0 mm 0.00 in0.0 mm
02:30 AM 22.1°F-5.5°C 20.4°F-6.4°C 93% 1.0 mph WNW1.6 kmh WNW 10.0 mph16.1 kmh 29.59 in1002.0 mb 0.00 in0.0 mm 0.00 in0.0 mm 0.00 in0.0 mm
02:45 AM 22.1°F-5.5°C 20.4°F-6.4°C 93% 1.0 mph WNW1.6 kmh WNW 7.0 mph11.3 kmh 29.61 in1002.7 mb 0.00 in0.0 mm 0.00 in0.0 mm 0.00 in0.0 mm
03:00 AM 22.1°F-5.5°C 20.4°F-6.4°C 93% 3.0 mph WNW4.8 kmh WNW 9.0 mph14.5 kmh 29.61 in1002.7 mb 0.00 in0.0 mm 0.00 in0.0 mm 0.00 in0.0 mm
03:15 AM 22.1°F-5.5°C 20.4°F-6.4°C 93% 3.0 mph WNW4.8 kmh WNW 9.0 mph14.5 kmh 29.62 in1003.0 mb 0.00 in0.0 mm 0.00 in0.0 mm 0.00 in0.0 mm
03:30 AM 22.2°F-5.4°C 20.5°F-6.4°C 93% 1.0 mph WNW1.6 kmh WNW 10.0 mph16.1 kmh 29.63 in1003.4 mb 0.00 in0.0 mm 0.00 in0.0 mm 0.00 in0.0 mm
03:45 AM 22.2°F-5.4°C 20.5°F-6.4°C 93% 1.0 mph WNW1.6 kmh WNW 8.0 mph12.9 kmh 29.63 in1003.4 mb 0.00 in0.0 mm 0.00 in0.0 mm 0.00 in0.0 mm
04:00 AM 22.2°F-5.4°C 20.5°F-6.4°C 93% 7.0 mph WNW11.3 kmh WNW 10.0 mph16.1 kmh 29.64 in1003.7 mb 0.00 in0.0 mm 0.00 in0.0 mm 0.00 in0.0 mm
04:15 AM 22.2°F-5.4°C 20.5°F-6.4°C 93% 3.0 mph WNW4.8 kmh WNW 9.0 mph14.5 kmh 29.64 in1003.7 mb 0.00 in0.0 mm 0.00 in0.0 mm 0.00 in0.0 mm
04:30 AM 22.2°F-5.4°C 20.5°F-6.4°C 93% 3.0 mph WNW4.8 kmh WNW 9.0 mph14.5 kmh 29.65 in1004.1 mb 0.00 in0.0 mm 0.00 in0.0 mm 0.00 in0.0 mm
04:45 AM 22.2°F-5.4°C 20.5°F-6.4°C 93% 3.0 mph WNW4.8 kmh WNW 11.0 mph17.7 kmh 29.65 in1004.1 mb 0.00 in0.0 mm 0.00 in0.0 mm 0.00 in0.0 mm
05:00 AM 22.2°F-5.4°C 20.5°F-6.4°C 93% 2.0 mph WNW3.2 kmh WNW 12.0 mph19.3 kmh 29.67 in1004.7 mb 0.00 in0.0 mm 0.00 in0.0 mm 0.00 in0.0 mm
05:15 AM 22.2°F-5.4°C 20.5°F-6.4°C 93% 1.0 mph WNW1.6 kmh WNW 8.0 mph12.9 kmh 29.67 in1004.7 mb 0.00 in0.0 mm 0.00 in0.0 mm 0.00 in0.0 mm
05:30 AM 22.2°F-5.4°C 20.5°F-6.4°C 93% 2.0 mph WNW3.2 kmh WNW 10.0 mph16.1 kmh 29.68 in1005.1 mb 0.00 in0.0 mm 0.00 in0.0 mm 0.00 in0.0 mm
05:45 AM 22.2°F-5.4°C 20.5°F-6.4°C 93% 2.0 mph WNW3.2 kmh WNW 7.0 mph11.3 kmh 29.68 in1005.1 mb 0.00 in0.0 mm 0.00 in0.0 mm 0.00 in0.0 mm
06:00 AM 22.2°F-5.4°C 20.5°F-6.4°C 93% 4.0 mph WNW6.4 kmh WNW 8.0 mph12.9 kmh 29.69 in1005.4 mb 0.00 in0.0 mm 0.00 in0.0 mm 0.00 in0.0 mm
06:15 AM 22.2°F-5.4°C 20.5°F-6.4°C 93% 3.0 mph WNW4.8 kmh WNW 9.0 mph14.5 kmh 29.69 in1005.4 mb 0.00 in0.0 mm 0.00 in0.0 mm 0.00 in0.0 mm
06:30 AM 22.1°F-5.5°C 20.4°F-6.4°C 93% 2.0 mph WNW3.2 kmh WNW 11.0 mph17.7 kmh 29.70 in1005.8 mb 0.00 in0.0 mm 0.00 in0.0 mm 0.00 in0.0 mm
06:45 AM 22.0°F-5.6°C 20.3°F-6.5°C 93% 3.0 mph WNW4.8 kmh WNW 8.0 mph12.9 kmh 29.70 in1005.8 mb 0.00 in0.0 mm 0.00 in0.0 mm 0.00 in0.0 mm
07:00 AM 22.0°F-5.6°C 20.0°F-6.7°C 92% 1.0 mph WNW1.6 kmh WNW 9.0 mph14.5 kmh 29.70 in1005.8 mb 0.00 in0.0 mm 0.00 in0.0 mm 0.00 in0.0 mm
07:15 AM 21.9°F-5.6°C 19.9°F-6.7°C 92% 7.0 mph WNW11.3 kmh WNW 7.0 mph11.3 kmh 29.70 in1005.8 mb 0.00 in0.0 mm 0.00 in0.0 mm 0.00 in0.0 mm
07:30 AM 21.8°F-5.7°C 19.8°F-6.8°C 92% 2.0 mph WNW3.2 kmh WNW 9.0 mph14.5 kmh 29.72 in1006.4 mb 0.00 in0.0 mm 0.00 in0.0 mm 0.00 in0.0 mm
07:45 AM 21.6°F-5.8°C 19.6°F-6.9°C 92% 4.0 mph WNW6.4 kmh WNW 11.0 mph17.7 kmh 29.72 in1006.4 mb 0.00 in0.0 mm 0.00 in0.0 mm 0.00 in0.0 mm
08:00 AM 21.3°F-5.9°C 19.3°F-7.1°C 92% 2.0 mph WNW3.2 kmh WNW 11.0 mph17.7 kmh 29.73 in1006.8 mb 0.00 in0.0 mm 0.00 in0.0 mm 0.00 in0.0 mm
08:15 AM 21.1°F-6.1°C 19.1°F-7.2°C 92% 1.0 mph WNW1.6 kmh WNW 9.0 mph14.5 kmh 29.73 in1006.8 mb 0.00 in0.0 mm 0.00 in0.0 mm 0.00 in0.0 mm
08:30 AM 21.1°F-6.1°C 19.1°F-7.2°C 92% 6.0 mph WNW9.7 kmh WNW 9.0 mph14.5 kmh 29.74 in1007.1 mb 0.00 in0.0 mm 0.00 in0.0 mm 0.00 in0.0 mm
08:45 AM 21.1°F-6.1°C 19.1°F-7.2°C 92% 3.0 mph WNW4.8 kmh WNW 6.0 mph9.7 kmh 29.75 in1007.5 mb 0.00 in0.0 mm 0.00 in0.0 mm 0.00 in0.0 mm
09:00 AM 21.1°F-6.1°C 19.1°F-7.2°C 92% 4.0 mph WNW6.4 kmh WNW 9.0 mph14.5 kmh 29.75 in1007.5 mb 0.00 in0.0 mm 0.00 in0.0 mm 0.00 in0.0 mm
09:15 AM 20.9°F-6.2°C 19.0°F-7.2°C 92% 2.0 mph WNW3.2 kmh WNW 11.0 mph17.7 kmh 29.76 in1007.8 mb 0.00 in0.0 mm 0.00 in0.0 mm 0.00 in0.0 mm
09:30 AM 21.0°F-6.1°C 19.1°F-7.2°C 92% 3.0 mph WNW4.8 kmh WNW 11.0 mph17.7 kmh 29.76 in1007.8 mb 0.00 in0.0 mm 0.00 in0.0 mm 0.00 in0.0 mm
09:45 AM 21.0°F-6.1°C 19.1°F-7.2°C 92% 1.0 mph WNW1.6 kmh WNW 10.0 mph16.1 kmh 29.76 in1007.8 mb 0.00 in0.0 mm 0.00 in0.0 mm 0.00 in0.0 mm
10:00 AM 21.0°F-6.1°C 18.8°F-7.3°C 91% 1.0 mph WNW1.6 kmh WNW 10.0 mph16.1 kmh 29.77 in1008.1 mb 0.00 in0.0 mm 0.00 in0.0 mm 0.00 in0.0 mm
10:15 AM 21.2°F-6.0°C 19.0°F-7.2°C 91% 1.0 mph WNW1.6 kmh WNW 6.0 mph9.7 kmh 29.77 in1008.1 mb 0.00 in0.0 mm 0.00 in0.0 mm 0.00 in0.0 mm
10:30 AM 21.1°F-6.1°C 18.9°F-7.3°C 91% 5.0 mph WNW8.0 kmh WNW 6.0 mph9.7 kmh 29.78 in1008.5 mb 0.00 in0.0 mm 0.00 in0.0 mm 0.00 in0.0 mm
10:45 AM 21.3°F-5.9°C 19.1°F-7.2°C 91% 3.0 mph WNW4.8 kmh WNW 5.0 mph8.0 kmh 29.78 in1008.5 mb 0.00 in0.0 mm 0.00 in0.0 mm 0.00 in0.0 mm
11:00 AM 22.2°F-5.4°C 20.0°F-6.7°C 91% 3.0 mph WNW4.8 kmh WNW 7.0 mph11.3 kmh 29.78 in1008.5 mb 0.00 in0.0 mm 0.00 in0.0 mm 0.00 in0.0 mm
11:15 AM 23.1°F-4.9°C 20.6°F-6.3°C 90% 5.0 mph WNW8.0 kmh WNW 7.0 mph11.3 kmh 29.77 in1008.1 mb 0.00 in0.0 mm 0.00 in0.0 mm 0.00 in0.0 mm
11:30 AM 22.9°F-5.1°C 20.2°F-6.6°C 89% 3.0 mph WNW4.8 kmh WNW 8.0 mph12.9 kmh 29.78 in1008.5 mb 0.00 in0.0 mm 0.00 in0.0 mm 0.00 in0.0 mm
11:45 AM 23.2°F-4.9°C 20.5°F-6.4°C 89% 1.0 mph WNW1.6 kmh WNW 6.0 mph9.7 kmh 29.77 in1008.1 mb 0.00 in0.0 mm 0.00 in0.0 mm 0.00 in0.0 mm
12:00 PM 23.6°F-4.7°C 20.6°F-6.3°C 88% 3.0 mph WNW4.8 kmh WNW 8.0 mph12.9 kmh 29.77 in1008.1 mb 0.00 in0.0 mm 0.00 in0.0 mm 0.00 in0.0 mm
12:15 PM 23.7°F-4.6°C 20.7°F-6.3°C 88% 2.0 mph WNW3.2 kmh WNW 7.0 mph11.3 kmh 29.77 in1008.1 mb 0.00 in0.0 mm 0.00 in0.0 mm 0.00 in0.0 mm
12:30 PM 23.8°F-4.6°C 20.8°F-6.2°C 88% 2.0 mph WNW3.2 kmh WNW 7.0 mph11.3 kmh 29.76 in1007.8 mb 0.00 in0.0 mm 0.00 in0.0 mm 0.00 in0.0 mm
12:45 PM 24.1°F-4.4°C 20.8°F-6.2°C 87% 2.0 mph WNW3.2 kmh WNW 6.0 mph9.7 kmh 29.76 in1007.8 mb 0.00 in0.0 mm 0.00 in0.0 mm 0.00 in0.0 mm
01:00 PM 24.5°F-4.2°C 21.2°F-6.0°C 87% 3.0 mph WNW4.8 kmh WNW 8.0 mph12.9 kmh 29.75 in1007.5 mb 0.00 in0.0 mm 0.00 in0.0 mm 0.00 in0.0 mm
01:15 PM 25.1°F-3.8°C 21.8°F-5.7°C 87% 1.0 mph WNW1.6 kmh WNW 6.0 mph9.7 kmh 29.75 in1007.5 mb 0.00 in0.0 mm 0.00 in0.0 mm 0.00 in0.0 mm
01:30 PM 25.6°F-3.6°C 22.0°F-5.6°C 86% 5.0 mph WNW8.0 kmh WNW 7.0 mph11.3 kmh 29.75 in1007.5 mb 0.00 in0.0 mm 0.00 in0.0 mm 0.00 in0.0 mm
01:45 PM 25.9°F-3.4°C 22.0°F-5.6°C 85% 3.0 mph WNW4.8 kmh WNW 7.0 mph11.3 kmh 29.75 in1007.5 mb 0.00 in0.0 mm 0.00 in0.0 mm 0.00 in0.0 mm
02:00 PM 26.1°F-3.3°C 21.9°F-5.6°C 84% 4.0 mph WNW6.4 kmh WNW 7.0 mph11.3 kmh 29.75 in1007.5 mb 0.00 in0.0 mm 0.00 in0.0 mm 0.00 in0.0 mm
02:15 PM 26.2°F-3.2°C 21.8°F-5.7°C 83% 4.0 mph WNW6.4 kmh WNW 9.0 mph14.5 kmh 29.75 in1007.5 mb 0.00 in0.0 mm 0.00 in0.0 mm 0.00 in0.0 mm
02:30 PM 27.1°F-2.7°C 22.9°F-5.1°C 84% 2.0 mph WNW3.2 kmh WNW 9.0 mph14.5 kmh 29.76 in1007.8 mb 0.01 in0.3 mm 0.04 in1.0 mm 0.01 in0.3 mm
02:45 PM 27.2°F-2.7°C 22.2°F-5.4°C 81% 3.0 mph W4.8 kmh W 6.0 mph9.7 kmh 29.76 in1007.8 mb 0.01 in0.3 mm 0.00 in0.0 mm 0.01 in0.3 mm
03:00 PM 27.0°F-2.8°C 21.4°F-5.9°C 79% 1.0 mph W1.6 kmh W 9.0 mph14.5 kmh 29.76 in1007.8 mb 0.01 in0.3 mm 0.00 in0.0 mm 0.01 in0.3 mm
03:15 PM 26.4°F-3.1°C 20.8°F-6.2°C 79% 3.0 mph W4.8 kmh W 8.0 mph12.9 kmh 29.76 in1007.8 mb 0.01 in0.3 mm 0.00 in0.0 mm 0.01 in0.3 mm
03:30 PM 25.6°F-3.6°C 19.7°F-6.8°C 78% 5.0 mph W8.0 kmh W 8.0 mph12.9 kmh 29.77 in1008.1 mb 0.01 in0.3 mm 0.00 in0.0 mm 0.01 in0.3 mm
03:45 PM 24.3°F-4.3°C 18.4°F-7.6°C 78% 3.0 mph W4.8 kmh W 7.0 mph11.3 kmh 29.78 in1008.5 mb 0.00 in0.0 mm 0.00 in0.0 mm 0.01 in0.3 mm
04:00 PM 23.3°F-4.8°C 17.5°F-8.1°C 78% 2.0 mph W3.2 kmh W 7.0 mph11.3 kmh 29.78 in1008.5 mb 0.00 in0.0 mm 0.00 in0.0 mm 0.01 in0.3 mm
04:15 PM 22.3°F-5.4°C 16.5°F-8.6°C 78% 4.0 mph W6.4 kmh W 6.0 mph9.7 kmh 29.78 in1008.5 mb 0.00 in0.0 mm 0.00 in0.0 mm 0.01 in0.3 mm
04:30 PM 21.4°F-5.9°C 15.9°F-8.9°C 79% 1.0 mph W1.6 kmh W 6.0 mph9.7 kmh 29.78 in1008.5 mb 0.00 in0.0 mm 0.00 in0.0 mm 0.01 in0.3 mm
04:45 PM 20.8°F-6.2°C 15.6°F-9.1°C 80% 3.0 mph W4.8 kmh W 7.0 mph11.3 kmh 29.78 in1008.5 mb 0.00 in0.0 mm 0.00 in0.0 mm 0.01 in0.3 mm
05:00 PM 20.3°F-6.5°C 15.4°F-9.2°C 81% 3.0 mph W4.8 kmh W 7.0 mph11.3 kmh 29.79 in1008.8 mb 0.00 in0.0 mm 0.00 in0.0 mm 0.01 in0.3 mm
05:15 PM 19.5°F-6.9°C 14.9°F-9.5°C 82% 1.0 mph W1.6 kmh W 6.0 mph9.7 kmh 29.78 in1008.5 mb 0.00 in0.0 mm 0.00 in0.0 mm 0.01 in0.3 mm
05:30 PM 18.9°F-7.3°C 14.6°F-9.7°C 83% 4.0 mph W6.4 kmh W 6.0 mph9.7 kmh 29.79 in1008.8 mb 0.00 in0.0 mm 0.00 in0.0 mm 0.01 in0.3 mm
05:45 PM 18.3°F-7.6°C 14.0°F-10.0°C 83% 1.0 mph W1.6 kmh W 4.0 mph6.4 kmh 29.79 in1008.8 mb 0.00 in0.0 mm 0.00 in0.0 mm 0.01 in0.3 mm
06:00 PM 17.6°F-8.0°C 13.6°F-10.2°C 84% 2.0 mph WSW3.2 kmh WSW 7.0 mph11.3 kmh 29.80 in1009.1 mb 0.00 in0.0 mm 0.00 in0.0 mm 0.01 in0.3 mm
06:15 PM 17.1°F-8.3°C 13.1°F-10.5°C 84% Calm Calm 8.0 mph12.9 kmh 29.80 in1009.1 mb 0.00 in0.0 mm 0.00 in0.0 mm 0.01 in0.3 mm
06:30 PM 16.7°F-8.5°C 12.7°F-10.7°C 84% 1.0 mph W1.6 kmh W 8.0 mph12.9 kmh 29.80 in1009.1 mb 0.00 in0.0 mm 0.00 in0.0 mm 0.01 in0.3 mm
06:45 PM 16.3°F-8.7°C 12.3°F-10.9°C 84% 3.0 mph W4.8 kmh W 4.0 mph6.4 kmh 29.80 in1009.1 mb 0.00 in0.0 mm 0.00 in0.0 mm 0.01 in0.3 mm
07:00 PM 15.7°F-9.1°C 11.7°F-11.3°C 84% Calm Calm 4.0 mph6.4 kmh 29.79 in1008.8 mb 0.00 in0.0 mm 0.00 in0.0 mm 0.01 in0.3 mm
07:15 PM 15.0°F-9.4°C 11.3°F-11.5°C 85% 1.0 mph W1.6 kmh W 4.0 mph6.4 kmh 29.78 in1008.5 mb 0.00 in0.0 mm 0.00 in0.0 mm 0.01 in0.3 mm
07:30 PM 14.6°F-9.7°C 11.2°F-11.6°C 86% Calm Calm 4.0 mph6.4 kmh 29.78 in1008.5 mb 0.00 in0.0 mm 0.00 in0.0 mm 0.01 in0.3 mm
07:45 PM 14.1°F-9.9°C 10.7°F-11.8°C 86% 1.0 mph W1.6 kmh W 1.0 mph1.6 kmh 29.77 in1008.1 mb 0.00 in0.0 mm 0.00 in0.0 mm 0.01 in0.3 mm
08:00 PM 13.4°F-10.3°C 9.7°F-12.4°C 85% 3.0 mph W4.8 kmh W 5.0 mph8.0 kmh 29.78 in1008.5 mb 0.00 in0.0 mm 0.00 in0.0 mm 0.01 in0.3 mm
08:15 PM 12.6°F-10.8°C 9.0°F-12.8°C 85% Calm Calm 1.0 mph1.6 kmh 29.78 in1008.5 mb 0.00 in0.0 mm 0.00 in0.0 mm 0.01 in0.3 mm
08:30 PM 11.8°F-11.2°C 8.4°F-13.1°C 86% Calm Calm 2.0 mph3.2 kmh 29.78 in1008.5 mb 0.00 in0.0 mm 0.00 in0.0 mm 0.01 in0.3 mm
08:45 PM 11.2°F-11.6°C 7.8°F-13.4°C 86% Calm Calm -- 29.77 in1008.1 mb 0.00 in0.0 mm 0.00 in0.0 mm 0.01 in0.3 mm
09:00 PM 10.7°F-11.8°C 7.4°F-13.7°C 86% Calm Calm 1.0 mph1.6 kmh 29.77 in1008.1 mb 0.00 in0.0 mm 0.00 in0.0 mm 0.01 in0.3 mm
09:15 PM 10.3°F-12.1°C 7.2°F-13.8°C 87% Calm Calm -- 29.77 in1008.1 mb 0.00 in0.0 mm 0.00 in0.0 mm 0.01 in0.3 mm
09:30 PM 9.7°F-12.4°C 6.6°F-14.1°C 87% Calm Calm 2.0 mph3.2 kmh 29.77 in1008.1 mb 0.00 in0.0 mm 0.00 in0.0 mm 0.01 in0.3 mm
09:45 PM 9.3°F-12.6°C 6.2°F-14.3°C 87% Calm Calm -- 29.76 in1007.8 mb 0.00 in0.0 mm 0.00 in0.0 mm 0.01 in0.3 mm
10:00 PM 8.9°F-12.8°C 6.1°F-14.4°C 88% Calm Calm -- 29.75 in1007.5 mb 0.00 in0.0 mm 0.00 in0.0 mm 0.01 in0.3 mm
10:15 PM 8.5°F-13.1°C 5.7°F-14.6°C 88% Calm Calm -- 29.74 in1007.1 mb 0.00 in0.0 mm 0.00 in0.0 mm 0.01 in0.3 mm
10:30 PM 8.1°F-13.3°C 5.3°F-14.8°C 88% Calm Calm -- 29.74 in1007.1 mb 0.00 in0.0 mm 0.00 in0.0 mm 0.01 in0.3 mm
10:45 PM 7.8°F-13.4°C 5.0°F-15.0°C 88% Calm Calm -- 29.73 in1006.8 mb 0.00 in0.0 mm 0.00 in0.0 mm 0.01 in0.3 mm
11:00 PM 7.5°F-13.6°C 4.7°F-15.2°C 88% Calm Calm -- 29.72 in1006.4 mb 0.00 in0.0 mm 0.00 in0.0 mm 0.01 in0.3 mm
11:15 PM 7.3°F-13.7°C 4.5°F-15.3°C 88% Calm Calm -- 29.72 in1006.4 mb 0.00 in0.0 mm 0.00 in0.0 mm 0.01 in0.3 mm
11:30 PM 7.1°F-13.8°C 4.3°F-15.4°C 88% Calm Calm -- 29.72 in1006.4 mb 0.00 in0.0 mm 0.00 in0.0 mm 0.01 in0.3 mm
11:45 PM 6.9°F-13.9°C 4.4°F-15.3°C 89% Calm Calm 1.0 mph1.6 kmh 29.72 in1006.4 mb 0.00 in0.0 mm 0.00 in0.0 mm 0.01 in0.3 mm